createdAt,value
2023-02-16T00:00:54.615Z,99297.78
2023-02-16T00:03:20.861Z,99288.09
2023-02-16T00:05:47.036Z,99288.94
2023-02-16T00:08:13.140Z,99294.28
2023-02-16T00:10:39.759Z,99290.78
2023-02-16T00:13:05.863Z,99288.09
2023-02-16T00:15:31.964Z,99287.28
2023-02-16T00:17:58.108Z,99288.09
2023-02-16T00:20:24.204Z,99274.94
2023-02-16T00:22:50.401Z,99275.78
2023-02-16T00:25:16.520Z,99278.44
2023-02-16T00:27:42.623Z,99283.78
2023-02-16T00:30:08.786Z,99274.09
2023-02-16T00:32:34.948Z,99271.44
2023-02-16T00:35:01.043Z,99273.28
2023-02-16T00:37:27.148Z,99270.59
2023-02-16T00:39:53.270Z,99276.78
2023-02-16T00:42:19.373Z,99274.09
2023-02-16T00:44:45.478Z,99275.13
2023-02-16T00:47:11.609Z,99280.47
2023-02-16T00:49:37.825Z,99270.59
2023-02-16T00:52:03.937Z,99264.44
2023-02-16T00:54:31.970Z,99265.44
2023-02-16T00:56:58.210Z,99267.28
2023-02-16T00:59:24.385Z,99269.13
2023-02-16T01:01:50.612Z,99265.44
2023-02-16T01:04:16.784Z,99269.28
2023-02-16T01:06:42.905Z,99274.47
2023-02-16T01:09:09.032Z,99276.31
2023-02-16T01:11:37.876Z,99269.28
2023-02-16T01:14:04.033Z,99261.28
2023-02-16T01:16:30.210Z,99270.13
2023-02-16T01:18:56.371Z,99258.63
2023-02-16T01:21:22.617Z,99260.47
2023-02-16T01:23:48.756Z,99254.31
2023-02-16T01:26:14.864Z,99257.78
2023-02-16T01:28:40.969Z,99247.13
2023-02-16T01:31:07.492Z,99262.31
2023-02-16T01:33:33.844Z,99257.97
2023-02-16T01:35:59.942Z,99263.13
2023-02-16T01:38:26.062Z,99250.81
2023-02-16T01:40:52.192Z,99255.28
2023-02-16T01:43:18.291Z,99256.16
2023-02-16T01:45:44.416Z,99259.81
2023-02-16T01:48:10.515Z,99265.16
2023-02-16T01:50:36.666Z,99249.13
2023-02-16T01:53:02.782Z,99242.97
2023-02-16T01:55:28.892Z,99242.97
2023-02-16T01:57:54.986Z,99248.31
2023-02-16T02:00:21.105Z,99247.47
2023-02-16T02:02:47.242Z,99240.47
2023-02-16T02:05:13.360Z,99233.47
2023-02-16T02:07:39.508Z,99232.44
2023-02-16T02:10:05.630Z,99239.63
2023-02-16T02:12:31.766Z,99244.16
2023-02-16T02:14:57.985Z,99228.31
2023-02-16T02:17:24.091Z,99231.63
2023-02-16T02:19:50.188Z,99234.31
2023-02-16T02:22:16.319Z,99227.31
2023-02-16T02:24:42.430Z,99230.81
2023-02-16T02:27:08.526Z,99236.16
2023-02-16T02:29:34.652Z,99235.31
2023-02-16T02:32:00.951Z,99238.97
2023-02-16T02:34:27.104Z,99235.31
2023-02-16T02:36:53.231Z,99233.66
2023-02-16T02:39:19.326Z,99229.13
2023-02-16T02:41:45.421Z,99227.47
2023-02-16T02:44:11.547Z,99232.81
2023-02-16T02:46:37.636Z,99233.84
2023-02-16T02:49:03.756Z,99224.97
2023-02-16T02:51:29.904Z,99219.63
2023-02-16T02:53:56.006Z,99221.50
2023-02-16T02:56:22.130Z,99214.31
2023-02-16T02:58:48.255Z,99214.31
2023-02-16T03:01:14.430Z,99213.47
2023-02-16T03:03:40.600Z,99215.31
2023-02-16T03:06:06.738Z,99216.34
2023-02-16T03:08:32.855Z,99219.84
2023-02-16T03:10:58.972Z,99208.34
2023-02-16T03:13:25.084Z,99206.50
2023-02-16T03:15:51.182Z,99207.50
2023-02-16T03:18:17.280Z,99202.16
2023-02-16T03:20:43.492Z,99195.97
2023-02-16T03:23:09.593Z,99200.34
2023-02-16T03:25:35.690Z,99202.16
2023-02-16T03:28:01.873Z,99206.66
2023-02-16T03:30:28.122Z,99207.50
2023-02-16T03:32:54.319Z,99195.97
2023-02-16T03:35:20.426Z,99201.31
2023-02-16T03:37:46.584Z,99195.16
2023-02-16T03:40:12.719Z,99186.97
2023-02-16T03:42:38.859Z,99189.66
2023-02-16T03:45:04.968Z,99195.16
2023-02-16T03:47:31.066Z,99197.00
2023-02-16T03:49:57.250Z,99184.66
2023-02-16T03:52:23.340Z,99185.31
2023-02-16T03:54:49.434Z,99174.81
2023-02-16T03:57:15.558Z,99179.97
2023-02-16T03:59:41.677Z,99172.97
2023-02-16T04:02:07.859Z,99177.50
2023-02-16T04:04:34.112Z,99169.50
2023-02-16T04:07:00.297Z,99171.31
2023-02-16T04:09:26.405Z,99176.63
2023-02-16T04:11:52.517Z,99168.84
2023-02-16T04:14:18.627Z,99175.81
2023-02-16T04:16:44.760Z,99170.66
2023-02-16T04:19:10.952Z,99178.66
2023-02-16T04:21:37.105Z,99186.66
2023-02-16T04:24:03.232Z,99177.84
2023-02-16T04:26:29.431Z,99184.84
2023-02-16T04:28:58.538Z,99178.03
2023-02-16T04:31:24.770Z,99187.69
2023-02-16T04:33:50.994Z,99180.72
2023-02-16T04:36:17.136Z,99181.53
2023-02-16T04:38:43.270Z,99182.53
2023-02-16T04:41:09.398Z,99187.03
2023-02-16T04:43:35.556Z,99186.03
2023-02-16T04:46:01.699Z,99175.72
2023-02-16T04:48:27.904Z,99176.56
2023-02-16T04:50:54.031Z,99177.56
2023-02-16T04:53:20.146Z,99182.91
2023-02-16T04:55:46.256Z,99184.75
2023-02-16T04:58:12.362Z,99175.06
2023-02-16T05:00:38.461Z,99175.91
2023-02-16T05:03:04.648Z,99171.56
2023-02-16T05:05:30.769Z,99164.38
2023-02-16T05:07:56.873Z,99167.25
2023-02-16T05:10:22.994Z,99173.41
2023-02-16T05:12:49.091Z,99179.78
2023-02-16T05:15:15.197Z,99178.75
2023-02-16T05:17:41.326Z,99173.41
2023-02-16T05:20:07.427Z,99168.25
2023-02-16T05:22:33.571Z,99175.25
2023-02-16T05:24:59.899Z,99163.75
2023-02-16T05:27:26.070Z,99169.09
2023-02-16T05:29:52.259Z,99169.09
2023-02-16T05:32:18.519Z,99174.22
2023-02-16T05:34:44.695Z,99174.44
2023-02-16T05:37:10.812Z,99173.41
2023-02-16T05:39:36.947Z,99172.97
2023-02-16T05:42:03.067Z,99171.94
2023-02-16T05:44:29.184Z,99174.59
2023-02-16T05:46:55.295Z,99172.75
2023-02-16T05:49:21.476Z,99171.94
2023-02-16T05:51:47.568Z,99168.44
2023-02-16T05:54:13.708Z,99170.28
2023-02-16T05:56:39.820Z,99179.13
2023-02-16T05:59:05.922Z,99181.78
2023-02-16T06:01:32.045Z,99180.09
2023-02-16T06:03:58.178Z,99184.63
2023-02-16T06:06:24.301Z,99176.63
2023-02-16T06:08:50.518Z,99181.13
2023-02-16T06:11:16.626Z,99192.63
2023-02-16T06:13:42.737Z,99184.63
2023-02-16T06:16:08.894Z,99185.66
2023-02-16T06:18:35.031Z,99182.13
2023-02-16T06:21:01.159Z,99182.13
2023-02-16T06:23:27.296Z,99180.47
2023-02-16T06:25:53.390Z,99180.47
2023-02-16T06:28:19.503Z,99184.78
2023-02-16T06:30:45.679Z,99189.31
2023-02-16T06:33:11.801Z,99183.16
2023-02-16T06:35:37.901Z,99193.00
2023-02-16T06:38:04.042Z,99191.16
2023-02-16T06:40:30.154Z,99197.50
2023-02-16T06:42:56.245Z,99193.00
2023-02-16T06:45:22.366Z,99185.81
2023-02-16T06:47:48.479Z,99184.16
2023-02-16T06:50:14.682Z,99186.84
2023-02-16T06:52:40.861Z,99176.16
2023-02-16T06:55:07.011Z,99180.47
2023-02-16T06:57:33.118Z,99180.47
2023-02-16T06:59:59.247Z,99173.50
2023-02-16T07:02:25.390Z,99178.84
2023-02-16T07:04:51.511Z,99180.47
2023-02-16T07:07:17.674Z,99188.84
2023-02-16T07:09:43.793Z,99184.34
2023-02-16T07:12:09.912Z,99194.00
2023-02-16T07:14:36.049Z,99186.19
2023-02-16T07:17:02.151Z,99184.50
2023-02-16T07:19:28.264Z,99188.84
2023-02-16T07:21:54.383Z,99174.69
2023-02-16T07:24:20.506Z,99181.66
2023-02-16T07:26:46.632Z,99180.03
2023-02-16T07:29:13.291Z,99183.31
2023-02-16T07:31:39.577Z,99183.50
2023-02-16T07:34:05.869Z,99178.19
2023-02-16T07:36:32.042Z,99182.88
2023-02-16T07:38:58.358Z,99187.19
2023-02-16T07:41:24.496Z,99189.03
2023-02-16T07:43:50.652Z,99183.69
2023-02-16T07:46:16.780Z,99179.38
2023-02-16T07:48:42.886Z,99186.56
2023-02-16T07:51:09.031Z,99191.88
2023-02-16T07:53:35.153Z,99182.22
2023-02-16T07:56:01.274Z,99179.53
2023-02-16T07:58:27.661Z,99170.72
2023-02-16T08:00:53.887Z,99176.88
2023-02-16T08:03:20.170Z,99183.22
2023-02-16T08:05:46.436Z,99183.22
2023-02-16T08:08:12.617Z,99184.88
2023-02-16T08:10:38.740Z,99184.06
2023-02-16T08:13:04.861Z,99181.38
2023-02-16T08:15:31.032Z,99177.03
2023-02-16T08:17:57.162Z,99177.91
2023-02-16T08:20:27.778Z,99169.88
2023-02-16T08:23:01.538Z,99171.69
2023-02-16T08:25:28.024Z,99186.88
2023-02-16T08:27:54.117Z,99181.56
2023-02-16T08:30:20.323Z,99177.03
2023-02-16T08:32:47.347Z,99175.41
2023-02-16T08:35:13.525Z,99171.06
2023-02-16T08:37:39.648Z,99180.91
2023-02-16T08:40:06.230Z,99170.22
2023-02-16T08:42:32.404Z,99173.75
2023-02-16T08:44:58.545Z,99170.06
2023-02-16T08:47:24.755Z,99179.25
2023-02-16T08:49:50.860Z,99172.06
2023-02-16T08:52:16.992Z,99179.09
2023-02-16T08:54:43.501Z,99181.75
2023-02-16T08:57:09.753Z,99171.91
2023-02-16T08:59:35.961Z,99171.91
2023-02-16T09:02:02.118Z,99172.06
2023-02-16T09:04:28.262Z,99170.44
2023-02-16T09:06:54.378Z,99165.91
2023-02-16T09:09:20.704Z,99159.75
2023-02-16T09:11:46.859Z,99157.91
2023-02-16T09:14:13.008Z,99159.75
2023-02-16T09:16:39.187Z,99159.75
2023-02-16T09:19:05.356Z,99173.91
2023-02-16T09:21:31.454Z,99157.91
2023-02-16T09:23:57.575Z,99171.25
2023-02-16T09:26:23.698Z,99170.44
2023-02-16T09:28:49.813Z,99188.09
2023-02-16T09:31:16.095Z,99171.25
2023-02-16T09:33:42.251Z,99165.75
2023-02-16T09:36:08.404Z,99176.59
2023-02-16T09:38:34.554Z,99169.41
2023-02-16T09:41:00.722Z,99161.59
2023-02-16T09:43:26.865Z,99165.09
2023-02-16T09:45:53.065Z,99166.72
2023-02-16T09:48:19.207Z,99167.56
2023-02-16T09:50:53.781Z,99158.94
2023-02-16T09:53:20.707Z,99177.41
2023-02-16T09:55:46.974Z,99180.28
2023-02-16T09:58:13.123Z,99181.09
2023-02-16T10:00:39.279Z,99180.06
2023-02-16T10:03:05.438Z,99181.91
2023-02-16T10:05:31.727Z,99180.91
2023-02-16T10:07:57.874Z,99175.75
2023-02-16T10:10:23.975Z,99177.41
2023-02-16T10:12:50.092Z,99181.91
2023-02-16T10:15:16.229Z,99189.75
2023-02-16T10:17:42.339Z,99189.09
2023-02-16T10:20:08.430Z,99188.28
2023-02-16T10:22:34.571Z,99205.13
2023-02-16T10:25:00.719Z,99199.56
2023-02-16T10:27:27.038Z,99209.44
2023-02-16T10:29:53.608Z,99205.94
2023-02-16T10:32:19.742Z,99208.59
2023-02-16T10:34:45.841Z,99214.97
2023-02-16T10:37:11.971Z,99213.13
2023-02-16T10:39:38.089Z,99212.28
2023-02-16T10:42:04.276Z,99203.28
2023-02-16T10:44:30.446Z,99202.44
2023-02-16T10:46:56.593Z,99211.28
2023-02-16T10:49:22.739Z,99217.63
2023-02-16T10:51:48.872Z,99213.94
2023-02-16T10:54:14.985Z,99219.28
2023-02-16T10:56:41.088Z,99213.13
2023-02-16T10:59:07.425Z,99218.47
2023-02-16T11:01:33.617Z,99218.47
2023-02-16T11:03:59.768Z,99217.63
2023-02-16T11:06:25.898Z,99216.59
2023-02-16T11:08:52.013Z,99223.59
2023-02-16T11:11:18.126Z,99211.44
2023-02-16T11:13:44.251Z,99222.97
2023-02-16T11:16:10.483Z,99222.78
2023-02-16T11:18:36.638Z,99222.78
2023-02-16T11:21:03.239Z,99220.94
2023-02-16T11:23:29.605Z,99229.94
2023-02-16T11:25:55.944Z,99227.28
2023-02-16T11:28:22.135Z,99218.47
2023-02-16T11:30:48.275Z,99219.28
2023-02-16T11:33:14.439Z,99210.25
2023-02-16T11:35:40.570Z,99199.56
2023-02-16T11:38:06.675Z,99187.09
2023-02-16T11:40:32.806Z,99186.88
2023-02-16T11:42:58.937Z,99189.56
2023-02-16T11:45:25.072Z,99180.72
2023-02-16T11:47:51.193Z,99183.41
2023-02-16T11:50:17.655Z,99191.41
2023-02-16T11:52:43.793Z,99182.56
2023-02-16T11:55:09.906Z,99174.56
2023-02-16T11:57:36.049Z,99177.25
2023-02-16T12:00:02.167Z,99164.72
2023-02-16T12:02:28.286Z,99174.56
2023-02-16T12:04:54.444Z,99172.88
2023-02-16T12:07:20.648Z,99170.22
2023-02-16T12:09:46.762Z,99170.22
2023-02-16T12:12:12.900Z,99164.06
2023-02-16T12:14:39.023Z,99166.56
2023-02-16T12:17:05.141Z,99161.22
2023-02-16T12:19:31.292Z,99156.06
2023-02-16T12:21:57.419Z,99153.38
2023-02-16T12:24:23.538Z,99140.88
2023-02-16T12:26:49.688Z,99139.22
2023-02-16T12:29:15.780Z,99149.91
2023-02-16T12:31:41.969Z,99147.88
2023-02-16T12:34:08.103Z,99154.22
2023-02-16T12:36:34.223Z,99152.41
2023-02-16T12:39:00.334Z,99153.22
2023-02-16T12:41:26.456Z,99145.22
2023-02-16T12:43:52.592Z,99146.03
2023-02-16T12:46:18.719Z,99147.88
2023-02-16T12:48:44.847Z,99142.53
2023-02-16T12:51:10.943Z,99140.69
2023-02-16T12:53:37.077Z,99132.31
2023-02-16T12:56:03.646Z,99133.19
2023-02-16T12:58:29.970Z,99142.19
2023-02-16T13:00:56.123Z,99136.84
2023-02-16T13:03:22.422Z,99127.19
2023-02-16T13:05:48.593Z,99128.84
2023-02-16T13:08:14.711Z,99112.81
2023-02-16T13:10:40.837Z,99111.81
2023-02-16T13:13:06.983Z,99106.50
2023-02-16T13:15:33.106Z,99105.63
2023-02-16T13:17:59.261Z,99109.97
2023-02-16T13:20:25.392Z,99113.47
2023-02-16T13:22:51.499Z,99107.31
2023-02-16T13:25:18.192Z,99094.78
2023-02-16T13:27:45.269Z,99100.31
2023-02-16T13:30:11.422Z,99103.81
2023-02-16T13:32:37.548Z,99106.28
2023-02-16T13:35:03.668Z,99102.78
2023-02-16T13:37:29.782Z,99092.94
2023-02-16T13:39:55.926Z,99086.78
2023-02-16T13:42:22.046Z,99075.28
2023-02-16T13:44:48.198Z,99072.41
2023-02-16T13:47:14.348Z,99073.28
2023-02-16T13:49:40.468Z,99075.09
2023-02-16T13:52:06.593Z,99076.13
2023-02-16T13:54:33.292Z,99086.63
2023-02-16T13:56:59.404Z,99081.28
2023-02-16T13:59:25.513Z,99076.75
2023-02-16T14:01:51.693Z,99060.91
2023-02-16T14:04:17.814Z,99051.28
2023-02-16T14:06:43.963Z,99043.06
2023-02-16T14:09:10.088Z,99046.59
2023-02-16T14:11:36.194Z,99051.72
2023-02-16T14:14:02.298Z,99042.06
2023-02-16T14:16:28.416Z,99036.72
2023-02-16T14:18:54.552Z,99034.88
2023-02-16T14:21:20.667Z,99033.03
2023-02-16T14:23:46.793Z,99027.69
2023-02-16T14:26:12.905Z,99025.03
2023-02-16T14:28:39.074Z,99027.69
2023-02-16T14:31:05.673Z,99026.88
2023-02-16T14:33:32.077Z,99015.38
2023-02-16T14:35:58.194Z,99021.53
2023-02-16T14:38:24.338Z,99026.06
2023-02-16T14:40:50.457Z,99034.88
2023-02-16T14:43:16.569Z,99029.53
2023-02-16T14:45:42.728Z,99041.88
2023-02-16T14:48:08.830Z,99029.38
2023-02-16T14:50:34.960Z,99022.34
2023-02-16T14:53:01.106Z,99024.84
2023-02-16T14:55:27.206Z,99018.69
2023-02-16T14:57:53.347Z,99009.84
2023-02-16T15:00:19.829Z,99017.03
2023-02-16T15:02:45.985Z,99024.84
2023-02-16T15:05:12.087Z,99022.19
2023-02-16T15:07:38.249Z,99018.69
2023-02-16T15:10:04.434Z,99008.03
2023-02-16T15:12:30.564Z,99016.03
2023-02-16T15:14:56.725Z,99013.16
2023-02-16T15:17:22.831Z,99013.34
2023-02-16T15:19:48.950Z,99009.84
2023-02-16T15:22:15.141Z,99000.84
2023-02-16T15:24:41.277Z,99004.72
2023-02-16T15:27:07.387Z,99012.50
2023-02-16T15:29:33.545Z,99005.34
2023-02-16T15:31:59.800Z,99001.00
2023-02-16T15:34:25.972Z,99008.03
2023-02-16T15:36:52.219Z,99005.97
2023-02-16T15:39:21.242Z,99001.47
2023-02-16T15:41:47.405Z,98992.34
2023-02-16T15:44:13.563Z,98994.69
2023-02-16T15:46:39.757Z,98987.50
2023-02-16T15:49:05.937Z,98990.53
2023-02-16T15:51:32.071Z,98979.88
2023-02-16T15:53:58.183Z,98986.03
2023-02-16T15:56:24.297Z,98986.84
2023-02-16T15:58:50.435Z,98990.34
2023-02-16T16:01:19.106Z,98989.34
2023-02-16T16:03:50.211Z,98993.66
2023-02-16T16:06:16.532Z,98997.53
2023-02-16T16:08:42.635Z,98994.69
2023-02-16T16:11:08.735Z,99002.69
2023-02-16T16:13:34.861Z,99002.69
2023-02-16T16:16:01.034Z,98992.81
2023-02-16T16:18:27.186Z,99008.63
2023-02-16T16:20:53.286Z,98998.81
2023-02-16T16:23:19.396Z,98999.16
2023-02-16T16:25:45.541Z,99001.66
2023-02-16T16:28:11.707Z,99004.31
2023-02-16T16:30:37.820Z,98999.81
2023-02-16T16:33:03.950Z,98999.63
2023-02-16T16:35:30.081Z,99002.31
2023-02-16T16:37:56.193Z,98998.59
2023-02-16T16:40:22.317Z,98995.13
2023-02-16T16:42:48.544Z,98992.63
2023-02-16T16:45:14.668Z,98989.97
2023-02-16T16:47:40.844Z,98992.63
2023-02-16T16:50:06.988Z,98988.13
2023-02-16T16:52:33.129Z,98992.44
2023-02-16T16:54:59.244Z,98989.97
2023-02-16T16:57:25.413Z,98983.78
2023-02-16T16:59:52.787Z,98987.28
2023-02-16T17:02:18.896Z,98987.28
2023-02-16T17:04:45.428Z,98984.63
2023-02-16T17:07:11.566Z,98980.97
2023-02-16T17:09:37.710Z,98978.28
2023-02-16T17:12:03.844Z,98975.63
2023-02-16T17:14:29.967Z,98962.28
2023-02-16T17:16:56.067Z,98963.09
2023-02-16T17:19:22.187Z,98978.13
2023-02-16T17:21:48.330Z,98979.94
2023-02-16T17:24:14.457Z,98973.78
2023-02-16T17:26:40.615Z,98967.59
2023-02-16T17:29:06.723Z,98961.25
2023-02-16T17:31:32.875Z,98963.09
2023-02-16T17:33:59.076Z,98958.56
2023-02-16T17:36:25.176Z,98952.41
2023-02-16T17:38:51.286Z,98955.09
2023-02-16T17:41:17.436Z,98953.25
2023-02-16T17:43:43.660Z,98953.25
2023-02-16T17:46:09.866Z,98956.56
2023-02-16T17:48:36.035Z,98950.22
2023-02-16T17:51:02.138Z,98938.69
2023-02-16T17:53:28.237Z,98944.03
2023-02-16T17:55:54.377Z,98944.03
2023-02-16T17:58:20.478Z,98943.22
2023-02-16T18:00:46.579Z,98949.56
2023-02-16T18:03:12.707Z,98946.69
2023-02-16T18:05:38.806Z,98957.38
2023-02-16T18:08:04.910Z,98952.88
2023-02-16T18:10:31.072Z,98956.56
2023-02-16T18:12:57.188Z,98958.22
2023-02-16T18:15:23.308Z,98944.59
2023-02-16T18:17:49.488Z,98950.78
2023-02-16T18:20:15.628Z,98953.44
2023-02-16T18:22:41.725Z,98943.75
2023-02-16T18:25:07.946Z,98946.44
2023-02-16T18:27:34.043Z,98941.75
2023-02-16T18:30:00.229Z,98954.09
2023-02-16T18:32:26.420Z,98952.41
2023-02-16T18:34:52.527Z,98954.09
2023-02-16T18:37:18.614Z,98947.91
2023-02-16T18:39:44.735Z,98977.25
2023-02-16T18:42:10.855Z,98967.59
2023-02-16T18:44:36.985Z,98968.25
2023-02-16T18:47:03.133Z,98962.91
2023-02-16T18:49:29.264Z,98968.25
2023-02-16T18:51:55.380Z,98968.44
2023-02-16T18:54:21.551Z,98967.59
2023-02-16T18:56:47.655Z,98969.06
2023-02-16T18:59:13.752Z,98963.75
2023-02-16T19:01:39.954Z,98959.22
2023-02-16T19:04:06.121Z,98954.91
2023-02-16T19:06:32.278Z,98953.25
2023-02-16T19:08:58.412Z,98953.06
2023-02-16T19:11:24.514Z,98953.72
2023-02-16T19:13:50.626Z,98955.56
2023-02-16T19:16:16.785Z,98950.22
2023-02-16T19:18:42.930Z,98952.03
2023-02-16T19:21:09.085Z,98952.88
2023-02-16T19:23:35.236Z,98957.19
2023-02-16T19:26:01.346Z,98954.53
2023-02-16T19:28:27.456Z,98953.88
2023-02-16T19:30:53.724Z,98953.88
2023-02-16T19:33:19.866Z,98951.22
2023-02-16T19:35:45.952Z,98957.59
2023-02-16T19:38:12.080Z,98962.09
2023-02-16T19:40:38.176Z,98970.94
2023-02-16T19:43:04.279Z,98970.94
2023-02-16T19:45:30.948Z,98977.25
2023-02-16T19:47:57.058Z,98976.44
2023-02-16T19:50:23.155Z,98978.13
2023-02-16T19:52:49.275Z,98975.44
2023-02-16T19:55:15.384Z,98969.25
2023-02-16T19:57:41.489Z,98984.28
2023-02-16T20:00:07.643Z,98981.78
2023-02-16T20:02:33.772Z,98984.28
2023-02-16T20:04:59.904Z,98991.47
2023-02-16T20:07:26.057Z,98976.44
2023-02-16T20:09:52.187Z,98984.44
2023-02-16T20:12:18.301Z,98981.78
2023-02-16T20:14:44.528Z,98982.59
2023-02-16T20:17:10.656Z,98983.63
2023-02-16T20:19:36.854Z,98972.94
2023-02-16T20:22:02.982Z,98962.28
2023-02-16T20:24:29.076Z,98960.41
2023-02-16T20:26:55.351Z,98958.78
2023-02-16T20:29:21.518Z,98958.78
2023-02-16T20:31:47.735Z,98955.25
2023-02-16T20:34:13.939Z,98953.44
2023-02-16T20:36:40.101Z,98956.28
2023-02-16T20:39:06.208Z,98949.31
2023-02-16T20:41:32.316Z,98958.97
2023-02-16T20:43:58.455Z,98949.31
2023-02-16T20:46:24.704Z,98958.13
2023-02-16T20:48:51.092Z,98955.47
2023-02-16T20:51:17.256Z,98958.13
2023-02-16T20:53:43.374Z,98946.63
2023-02-16T20:56:09.500Z,98950.31
2023-02-16T20:58:35.641Z,98950.50
2023-02-16T21:01:01.801Z,98944.97
2023-02-16T21:03:27.991Z,98936.13
2023-02-16T21:05:54.153Z,98928.94
2023-02-16T21:08:20.255Z,98933.47
2023-02-16T21:10:46.365Z,98934.28
2023-02-16T21:13:12.496Z,98931.63
2023-02-16T21:15:38.600Z,98930.81
2023-02-16T21:18:04.761Z,98920.13
2023-02-16T21:20:30.975Z,98927.97
2023-02-16T21:22:57.117Z,98929.97
2023-02-16T21:25:23.230Z,98932.66
2023-02-16T21:27:49.389Z,98932.66
2023-02-16T21:30:15.541Z,98924.66
2023-02-16T21:32:41.681Z,98922.16
2023-02-16T21:35:07.826Z,98928.31
2023-02-16T21:37:33.931Z,98930.97
2023-02-16T21:40:00.161Z,98935.31
2023-02-16T21:42:26.298Z,98938.00
2023-02-16T21:44:52.421Z,98935.31
2023-02-16T21:47:18.706Z,98920.94
2023-02-16T21:49:44.925Z,98935.13
2023-02-16T21:52:11.030Z,98932.66
2023-02-16T21:54:37.168Z,98920.31
2023-02-16T21:57:03.308Z,98930.81
2023-02-16T21:59:29.550Z,98929.78
2023-02-16T22:01:55.646Z,98922.97
2023-02-16T22:04:21.973Z,98902.66
2023-02-16T22:06:48.203Z,98916.00
2023-02-16T22:09:14.484Z,98918.84
2023-02-16T22:11:40.605Z,98907.34
2023-02-16T22:14:06.712Z,98895.84
2023-02-16T22:16:32.853Z,98886.00
2023-02-16T22:18:58.997Z,98883.50
2023-02-16T22:21:25.117Z,98884.34
2023-02-16T22:23:51.227Z,98879.84
2023-02-16T22:26:17.431Z,98879.00
2023-02-16T22:28:43.523Z,98881.69
2023-02-16T22:31:09.701Z,98885.16
2023-02-16T22:33:35.912Z,98887.03
2023-02-16T22:36:02.001Z,98884.34
2023-02-16T22:38:28.104Z,98880.66
2023-02-16T22:40:54.223Z,98874.50
2023-02-16T22:43:20.347Z,98876.34
2023-02-16T22:45:46.512Z,98872.66
2023-02-16T22:48:12.643Z,98860.34
2023-02-16T22:50:38.758Z,98857.66
2023-02-16T22:53:04.882Z,98859.47
2023-02-16T22:55:31.019Z,98855.00
2023-02-16T22:57:57.147Z,98856.00
2023-02-16T23:00:23.246Z,98852.31
2023-02-16T23:02:49.370Z,98862.16
2023-02-16T23:05:15.488Z,98871.81
2023-02-16T23:07:41.600Z,98866.50
2023-02-16T23:10:07.733Z,98878.16
2023-02-16T23:12:33.852Z,98872.00
2023-02-16T23:14:59.978Z,98872.00
2023-02-16T23:17:26.106Z,98849.84
2023-02-16T23:19:52.243Z,98871.19
2023-02-16T23:22:18.352Z,98873.69
2023-02-16T23:24:44.552Z,98860.50
2023-02-16T23:27:10.665Z,98875.69
2023-02-16T23:29:36.801Z,98860.50
2023-02-16T23:32:02.912Z,98860.50
2023-02-16T23:34:29.021Z,98869.34
2023-02-16T23:36:55.132Z,98870.38
2023-02-16T23:39:21.256Z,98865.03
2023-02-16T23:41:47.356Z,98857.19
2023-02-16T23:44:13.464Z,98863.34
2023-02-16T23:46:39.605Z,98872.22
2023-02-16T23:49:05.728Z,98875.06
2023-02-16T23:51:31.848Z,98867.06
2023-02-16T23:53:57.970Z,98860.69
2023-02-16T23:56:24.088Z,98860.06
2023-02-16T23:58:50.196Z,98856.56
